METAR v bližini

 

LJMB - Maribor Edvarda Rusjana, Slovenia
Oddaljenost od postaje: SV 30,9km
Podatki zajeti: 21/11/2017 06:30
Jasno
Jasno
 Veter iz smeri V
Veter: V 6 km/h
Temperatura: 0°C
Rosišče: -3°C
Vlažnost: 80%
Tlak: 1015 hPa
Stanje: Jasno
Vidljivost: večja od 10 km
2017/11/21 05:30 LJMB 210530Z 10003KT 040V130 CAVOK M00/M03 Q1015
LJLJ - Ljubljana Brnik, Slovenia
Oddaljenost od postaje: S 103km
Podatki zajeti: 21/11/2017 06:30
Delno oblačno
Delno oblačno
 Veter iz smeri spremenljiv
Veter: spremenljiv 4 km/h
Temperatura: -4°C
Rosišče: -4°C
Vlažnost: 100%
Tlak: 1017 hPa
Oblačnost: Delno oblačno
Vidljivost: 10 km
Podrobnosti o oblakih: Delno oblačno 1311 m
2017/11/21 05:30 LJLJ 210530Z VRB02KT 9999 SCT043 M04/M04 Q1017 R30/CLRD// NOSIG
 
LJPZ - Portorož, Slovenia
Oddaljenost od postaje: SSZ 224km
Podatki zajeti: 21/11/2017 06:30
Jasno
Jasno
 Veter iz smeri VJV
Veter: VJV 17 km/h
Temperatura: 8°C
Občutek mraza zaradi vetra: 5°C
Rosišče: 4°C
Vlažnost: 76%
Tlak: 1017 hPa
Stanje: Jasno
Vidljivost: večja od 10 km
2017/11/21 05:30 LJPZ 210530Z 11009KT CAVOK 08/04 Q1017
LJCE - Cerklje, Slovenia
Oddaljenost od postaje: VSV 83,9km
Podatki zajeti: 21/11/2017 06:30
Jasno
Jasno
 Veter iz smeri Z
Veter: Z 11 km/h
Temperatura: 2°C
Občutek mraza zaradi vetra: -1°C
Rosišče: 0°C
Vlažnost: 87%
Tlak: 1016 hPa
Stanje: Jasno
Vidljivost: večja od 10 km
2017/11/21 05:30 LJCE 210530Z 26006KT CAVOK 02/M00 Q1016 RMK BLU
 
LOWG - Graz, Austria
Oddaljenost od postaje: SSZ 99,6km
Podatki zajeti: 21/11/2017 06:50
Rahlo oblačno
Rahlo oblačno
 Veter iz smeri spremenljiv
Veter: spremenljiv 2 km/h
Temperatura: -2°C
Rosišče: -4°C
Vlažnost: 86%
Tlak: 1015 hPa
Oblačnost: Rahlo oblačno
Vidljivost: 10 km
Podrobnosti o oblakih: Rahlo oblačno 2286 m
2017/11/21 05:50 LOWG 210550Z VRB01KT 9999 FEW075 M02/M04 Q1015 NOSIG
LOWK - Klagenfurt, Austria
Oddaljenost od postaje: SZ 121km
Podatki zajeti: 21/11/2017 06:50
Delno oblačno
Delno oblačno
 Veter iz smeri spremenljiv
Veter: spremenljiv 4 km/h
Temperatura: -2°C
Rosišče: -4°C
Vlažnost: 86%
Tlak: 1016 hPa
Oblačnost: Delno oblačno
Vidljivost: 10 km
Podrobnosti o oblakih: Delno oblačno 2438 m
2017/11/21 05:50 LOWK 210550Z VRB02KT 9999 SCT080 M02/M04 Q1016 NOSIG
 
LDRI - Rijeka, Croatia
Oddaljenost od postaje: SZ 243km
Podatki zajeti: 20/11/2017 21:30
Ni posodobljen
Jasno
Jasno
 Veter iz smeri JV
Veter: JV 9 km/h
Temperatura: 7°C
Občutek mraza zaradi vetra: 6°C
Rosišče: 2°C
Vlažnost: 71%
Tlak: 1020 hPa
Stanje: Jasno
Vidljivost: večja od 10 km
2017/11/20 20:30 LDRI 202030Z 13005KT CAVOK 07/02 Q1020
LIPQ - Ronchi, Italy
Oddaljenost od postaje: VJV 224km
Podatki zajeti: 21/11/2017 06:50
Delno oblačno
Delno oblačno
 Veter iz smeri S
Veter: S 7 km/h
Temperatura: 3°C
Občutek mraza zaradi vetra: 1°C
Rosišče: 2°C
Vlažnost: 93%
Tlak: 1017 hPa
Oblačnost: Delno oblačno
Vidljivost: 10 km
Podrobnosti o oblakih: Delno oblačno 1524 m
2017/11/21 05:50 LIPQ 210550Z 01004KT 9999 SCT050 03/02 Q1017
 
LDZA - Zagreb, Croatia
Oddaljenost od postaje: JJV 143km
Podatki zajeti: 21/11/2017 06:30
Jasno
Jasno
 Veter iz smeri J
Veter: J 7 km/h
Temperatura: 2°C
Občutek mraza zaradi vetra: 0°C
Rosišče: 0°C
Vlažnost: 87%
Tlak: 1016 hPa
Stanje: Jasno
Vidljivost: večja od 10 km
2017/11/21 05:30 LDZA 210530Z 18004KT 150V210 CAVOK 02/00 Q1016 NOSIG
LIVT - Trieste, Italy
Oddaljenost od postaje: ZSZ 250km
Podatki zajeti: 21/11/2017 05:55
Jasno
Jasno
 Veter iz smeri V
Veter: V 6 km/h
Temperatura: 10°C
Rosišče: 5°C
Vlažnost: 71%
Tlak: 1017 hPa
Stanje: Jasno
Vidljivost: večja od 10 km
2017/11/21 04:55 LIVT 210455Z 08003KT CAVOK 10/05 Q1017 RMK SKC QUK / QUL / VIS MAR 20 KM VIS MIN 9999
 
LIPA - Aviano, Italy
Oddaljenost od postaje: S 310km
Podatki zajeti: 21/11/2017 05:55
Rahlo oblačno
Rahlo oblačno
 Veter iz smeri S
Veter: S 9 km/h
Temperatura: 4°C
Občutek mraza zaradi vetra: 2°C
Rosišče: 1°C
Vlažnost: 81%
Tlak: 1017 hPa
Oblačnost: Rahlo oblačno
Vidljivost: 10 km
Podrobnosti o oblakih: Rahlo oblačno 3353 m
2017/11/21 04:55 LIPA 210455Z 01005KT 9999 FEW110 04/01 Q1017 RMK FEW VIS MIN 9999 WIND THR05 /////KT WIND THR23 /////KT A3006 BLU
LDPL - Pula, Croatia
Oddaljenost od postaje: SSV 304km
Podatki zajeti: 21/11/2017 06:30
Jasno
Jasno
 Veter iz smeri V
Veter: V 7 km/h
Temperatura: 4°C
Občutek mraza zaradi vetra: 2°C
Rosišče: 2°C
Vlažnost: 87%
Tlak: 1018 hPa
Stanje: Jasno
Vidljivost: večja od 10 km
2017/11/21 05:30 LDPL 210530Z 10004KT CAVOK 04/02 Q1018 NOSIG